Airfield :
LOGIN :

Register | Disclaimer

   EN    FR    IT 

 










Legend :    VFR   Marginal VFR   IFR   Intensive IFR   Very Intensive IFR
Visi :
Ceiling :
>= 8 km
>= 3000ft
5 to 8 km
1000 to 3000 ft
1500m to 5 km
500 to 1000 ft
800 to 1500m
200 to 500 ft
< 800m
< 200 ft
Symbols :   Thunderstorms  Fog  Heavy snow  Heavy precipitations  Wind > 20 kt
SIGMETs :     Misc.  Thunderstorms  Icing  Turbulence  Mountain Waves  Volcanic Ashes







- Airport Elevation : 39 ft
- IATA code : ANR


EBAW - Anvers / Antwerpen Deurne

CURRENT METAR :
  • 260920Z 26011KT 220V290 9999 SCT026TCU 11/04 Q1017 NOSIG

EXPIRED METARs :
  • 260850Z 26012KT 220V300 9999 SCT023TCU 12/04 Q1017 NOSIG
  • 260820Z 28011KT 9999 BKN022 11/05 Q1017 NOSIG
  • 260750Z 26013KT 9999 BKN020 11/05 Q1016 NOSIG
  • 260720Z 26013KT 230V290 9999 BKN025 10/05 Q1016 NOSIG
  • 260650Z 26012KT 9999 FEW020 BKN025 09/05 Q1016 NOSIG

TAF TAF EBAW
Valid from the 26 at 09:00 until the 26 at 18:00 UTC


260800Z 2609/2618 27012KT 9999 SCT024 SCT045
No reported NOTAMs for that airfield.



MET'MAP, your aeronautical weather chart ! - Copyright ORBIFLY December 2007 - Disclaimer

ORBIFLY MET'MAP TEAM :

Programming & Development : Alexandra Zaïnal
Concept & Development : Baudouin d'Aumeries
Co-Development & Prog : Marc-Olivier Méhu
Technical & hardware support : Manuel Goepfert

Contact : metmap@orbifly.com




SOURCES & CREDITS :

   NOAA